LSGG 200120Z AUTO VRB01KT 9999 NCD 17/15 Q1024 NOSIG LSGG 200050Z AUTO VRB01KT 9999 NCD 17/15 Q1024 NOSIG LSGG 200020Z AUTO 28002KT 9999 NCD 17/15 Q1024 NOSIG LSGG 192350Z AUTO VRB01KT 9999 NSC 18/15 Q1024 NOSIG LSGG 192320Z AUTO 29002KT 9999 NSC 18/15 Q1024 NOSIG LSGG 192250Z AUTO 30002KT 9999 NSC 18/15 Q1024 NOSIG LSGG 192220Z AUTO VRB02KT 9999 NSC 18/15 Q1024 NOSIG LSGG 192150Z AUTO 28003KT 9999 NCD 20/16 Q1024 NOSIG LSGG 192120Z 01002KT CAVOK 20/16 Q1023 NOSIG LSGG 192050Z VRB02KT CAVOK 21/16 Q1023 NOSIG LSGG 192020Z 28002KT CAVOK 22/16 Q1023 NOSIG LSGG 191950Z VRB01KT CAVOK 22/16 Q1023 NOSIG LSGG 191920Z VRB02KT CAVOK 24/16 Q1023 NOSIG LSGG 191850Z 24006KT 200V270 CAVOK 26/16 Q1023 NOSIG LSGG 191820Z 23006KT 200V260 CAVOK 27/15 Q1022 NOSIG LSGG 191750Z 22005KT 190V250 CAVOK 27/16 Q1022 NOSIG LSGG 191720Z 25004KT 220V280 CAVOK 27/15 Q1022 NOSIG LSGG 191650Z 24006KT 200V270 CAVOK 28/15 Q1022 NOSIG LSGG 191620Z 26005KT 230V290 CAVOK 27/15 Q1022 NOSIG LSGG 191550Z 24006KT CAVOK 27/13 Q1022 NOSIG LSGG 191520Z 23007KT 200V300 9999 FEW090 27/14 Q1022 NOSIG LSGG 191450Z 19011KT 9999 FEW060 BKN090 24/15 Q1022 NOSIG LSGG 191420Z 20012KT 9999 -SHRA FEW045CB BKN090 25/14 Q1023 TEMPO TSRA LSGG 191350Z 21014KT 9999 FEW050TCU BKN090 26/14 Q1023 TEMPO SHRA LSGG 191320Z 23012KT 9999 -SHRA SCT045TCU BKN090 27/14 Q1023 TEMPO TSRA LSGG 191250Z 25009KT 9999 -SHRA SCT050TCU BKN085 25/17 Q1023 TEMPO TSRA LSGG 191220Z 24008KT 9999 FEW060TCU SCT085 28/12 Q1023 TEMPO TS LSGG 191150Z 24006KT 9999 FEW085 SCT095 27/13 Q1023 NOSIG LSGG 191120Z 25007KT 9999 BKN095 27/13 Q1023 NOSIG LSGG 191050Z 24007KT 210V270 9999 SCT095 27/13 Q1023 NOSIG LSGG 191020Z 24008KT 200V290 CAVOK 27/14 Q1023 NOSIG LSGG 190950Z 25008KT 220V290 9999 FEW090 27/15 Q1023 NOSIG LSGG 190920Z 26006KT 210V290 9999 FEW095 25/15 Q1023 NOSIG LSGG 190850Z 24006KT 210V290 CAVOK 24/15 Q1023 NOSIG LSGG 190820Z 23007KT 200V270 CAVOK 23/15 Q1023 NOSIG LSGG 190750Z 24007KT CAVOK 23/15 Q1024 NOSIG LSGG 190720Z 22006KT CAVOK 22/14 Q1024 NOSIG LSGG 190650Z 26007KT CAVOK 21/14 Q1023 NOSIG LSGG 190620Z 26004KT CAVOK 20/14 Q1023 NOSIG LSGG 190550Z 24003KT 210V270 CAVOK 20/14 Q1023 NOSIG LSGG 190520Z VRB01KT CAVOK 18/13 Q1023 NOSIG LSGG 190450Z VRB01KT CAVOK 17/13 Q1022 NOSIG LSGG 190420Z 01001KT CAVOK 15/12 Q1022 NOSIG LSGG 190350Z VRB01KT CAVOK 16/12 Q1022 NOSIG LSGG 190320Z AUTO VRB02KT 9999 NCD 16/12 Q1022 NOSIG LSGG 190250Z AUTO VRB02KT 9999 NCD 16/12 Q1022 NOSIG LSGG 190220Z AUTO 00000KT 9999 NCD 17/12 Q1021 NOSIG LSGG 190150Z AUTO VRB03KT 9999 NCD 17/12 Q1021 NOSIG LSGG 190120Z AUTO VRB02KT 9999 NCD 17/12 Q1021 NOSIG LSGG 190050Z AUTO VRB01KT 9999 NCD 17/12 Q1021 NOSIG LSGG 190020Z AUTO VRB02KT 9999 //////TCU 18/12 Q1021 NOSIG LSGG 182350Z AUTO VRB02KT 9999 //////TCU 18/12 Q1021 NOSIG LSGG 182320Z AUTO 29003KT 9999 //////TCU 18/12 Q1021 NOSIG LSGG 182250Z AUTO 27002KT 9999 FEW090 //////TCU 18/12 Q1021 NOSIG LSGG 182220Z AUTO VRB01KT 9999 NCD 19/12 Q1021 NOSIG LSGG 182150Z AUTO VRB01KT 9999 NCD 19/12 Q1021 NOSIG LSGG 182120Z 28002KT CAVOK 20/13 Q1021 NOSIG LSGG 182050Z VRB02KT CAVOK 21/13 Q1020 NOSIG LSGG 182020Z 03002KT CAVOK 21/13 Q1020 NOSIG LSGG 181950Z 24001KT CAVOK 22/13 Q1020 NOSIG LSGG 181920Z 16001KT CAVOK 23/14 Q1019 NOSIG LSGG 181850Z 36001KT CAVOK 24/12 Q1019 NOSIG LSGG 181820Z 36002KT CAVOK 26/13 Q1019 NOSIG LSGG 181750Z 04003KT 9999 FEW060 27/11 Q1019 NOSIG LSGG 181720Z 02003KT 9999 FEW060 28/10 Q1019 NOSIG LSGG 181650Z 03003KT 9999 FEW060 28/10 Q1019 NOSIG LSGG 181620Z 03003KT 9999 FEW060 28/11 Q1019 NOSIG LSGG 181550Z 06004KT 9999 FEW060 28/12 Q1019 NOSIG LSGG 181520Z 02003KT 9999 FEW060 28/12 Q1019 NOSIG LSGG 181450Z 03005KT 9999 FEW060 28/12 Q1019 NOSIG LSGG 181420Z 04006KT 9999 FEW060 28/12 Q1020 NOSIG LSGG 181350Z 08007KT 9999 FEW060 27/11 Q1020 NOSIG

METAR Messwerte "GENEVA/COINTRIN" LSGG

Zurück zur Übersicht

Ortsname
Ländercode / m ü. NN
Zeit Temperatur Taupunkt Rel.
Luftfeuchte
Luftdruck:
Altimeter
NN
Station
Wind in Beaufort
(Knoten)
Sichtweite
(Meter)
Wolken
(Meter über Grund)
Wettererscheinung
GENEVA/COINTRIN
CH 411
Fr 20.05. 03:20171588 %1024
1024
975
Uml 1 (1)>= 10000  
GENEVA/COINTRIN
CH 411
Fr 20.05. 02:50171588 %1024
1024
975
Uml 1 (1)>= 10000  
GENEVA/COINTRIN
CH 411
Fr 20.05. 02:20171588 %1024
1024
975
W 1 (2)>= 10000  
GENEVA/COINTRIN
CH 411
Fr 20.05. 01:50181583 %1024
1024
975
Uml 1 (1)>= 10000Nicht signifikant 
GENEVA/COINTRIN
CH 411
Fr 20.05. 01:20181583 %1024
1024
975
WNW 1 (2)>= 10000Nicht signifikant 
GENEVA/COINTRIN
CH 411
Fr 20.05. 00:50181583 %1024
1024
975
WNW 1 (2)>= 10000Nicht signifikant 
GENEVA/COINTRIN
CH 411
Fr 20.05. 00:20181583 %1024
1024
975
Uml 1 (2)>= 10000Nicht signifikant 
GENEVA/COINTRIN
CH 411
Do 19.05. 23:50201678 %1024
1023
975
W 2 (3)>= 10000  
GENEVA/COINTRIN
CH 411
Do 19.05. 23:20201678 %1023
1022
974
N 1 (2)>= 10000Nicht signifikant 
GENEVA/COINTRIN
CH 411
Do 19.05. 22:50211673 %1023
1022
974
Uml 1 (2)>= 10000Nicht signifikant 
GENEVA/COINTRIN
CH 411
Do 19.05. 22:20221669 %1023
1022
974
W 1 (2)>= 10000Nicht signifikant 
GENEVA/COINTRIN
CH 411
Do 19.05. 21:50221669 %1023
1022
974
Uml 1 (1)>= 10000Nicht signifikant 
GENEVA/COINTRIN
CH 411
Do 19.05. 21:20241661 %1023
1022
974
Uml 1 (2)>= 10000Nicht signifikant 
GENEVA/COINTRIN
CH 411
Do 19.05. 20:50261654 %1023
1021
974
WSW 2 (6)
SSW - W
>= 10000Nicht signifikant 
GENEVA/COINTRIN
CH 411
Do 19.05. 20:20271548 %1022
1020
973
SW 2 (6)
SSW - W
>= 10000Nicht signifikant 
GENEVA/COINTRIN
CH 411
Do 19.05. 19:50271651 %1022
1020
973
SW 2 (5)
S - WSW
>= 10000Nicht signifikant 
GENEVA/COINTRIN
CH 411
Do 19.05. 19:20271548 %1022
1020
973
WSW 2 (4)
SW - W
>= 10000Nicht signifikant 
GENEVA/COINTRIN
CH 411
Do 19.05. 18:50281545 %1022
1020
973
WSW 2 (6)
SSW - W
>= 10000Nicht signifikant 
GENEVA/COINTRIN
CH 411
Do 19.05. 18:20271548 %1022
1020
973
W 2 (5)
SW - WNW
>= 10000Nicht signifikant 
GENEVA/COINTRIN
CH 411
Do 19.05. 17:50271342 %1022
1020
973
WSW 2 (6)>= 10000Nicht signifikant 
GENEVA/COINTRIN
CH 411
Do 19.05. 17:20271445 %1022
1020
973
SW 3 (7)
SSW - WNW
>= 10000Leicht bewölkt (2700) 
GENEVA/COINTRIN
CH 411
Do 19.05. 16:50241557 %1022
1021
973
S 4 (11)>= 10000Stark bewölkt (2700)
Leicht bewölkt (1800)
 
GENEVA/COINTRIN
CH 411
Do 19.05. 16:20251450 %1023
1021
974
SSW 4 (12)>= 10000Stark bewölkt (2700)
Leicht bewölkt Cb (1400)
Regen-Schauer (schwach)
Bald zeitweise: Gewitter mit Regen
GENEVA/COINTRIN
CH 411
Do 19.05. 15:50261448 %1023
1021
974
SSW 4 (14)>= 10000Stark bewölkt (2700)
Leicht bewölkt (1500)
 Bald zeitweise: Regen-Schauer
GENEVA/COINTRIN
CH 411
Do 19.05. 15:20271445 %1023
1021
974
SW 4 (12)>= 10000Stark bewölkt (2700)
Wolkig (1400)
Regen-Schauer (schwach)
Bald zeitweise: Gewitter mit Regen
GENEVA/COINTRIN
CH 411
Do 19.05. 14:50251761 %1023
1021
974
WSW 3 (9)>= 10000Stark bewölkt (2600)
Wolkig (1500)
Regen-Schauer (schwach)
Bald zeitweise: Gewitter mit Regen
GENEVA/COINTRIN
CH 411
Do 19.05. 14:20281237 %1023
1021
974
WSW 3 (8)>= 10000Wolkig (2600)
Leicht bewölkt (1800)
 
GENEVA/COINTRIN
CH 411
Do 19.05. 13:50271342 %1023
1021
974
WSW 2 (6)>= 10000Wolkig (2900)
Leicht bewölkt (2600)
 
GENEVA/COINTRIN
CH 411
Do 19.05. 13:20271342 %1023
1021
974
WSW 3 (7)>= 10000Stark bewölkt (2900) 
GENEVA/COINTRIN
CH 411
Do 19.05. 12:50271342 %1023
1021
974
WSW 3 (7)
SSW - W
>= 10000Wolkig (2900) 
GENEVA/COINTRIN
CH 411
Do 19.05. 12:20271445 %1023
1021
974
WSW 3 (8)
SSW - WNW
>= 10000Nicht signifikant 
GENEVA/COINTRIN
CH 411
Do 19.05. 11:50271548 %1023
1021
974
WSW 3 (8)
SW - WNW
>= 10000Leicht bewölkt (2700) 
GENEVA/COINTRIN
CH 411
Do 19.05. 11:20251554 %1023
1021
974
W 2 (6)
SSW - WNW
>= 10000Leicht bewölkt (2900) 
GENEVA/COINTRIN
CH 411
Do 19.05. 10:50241557 %1023
1022
974
WSW 2 (6)
SSW - WNW
>= 10000Nicht signifikant 
GENEVA/COINTRIN
CH 411
Do 19.05. 10:20231561 %1023
1022
974
SW 3 (7)
SSW - W
>= 10000Nicht signifikant 
GENEVA/COINTRIN
CH 411
Do 19.05. 09:50231561 %1024
1023
975
WSW 3 (7)>= 10000Nicht signifikant 
GENEVA/COINTRIN
CH 411
Do 19.05. 09:20221460 %1024
1023
975
SW 2 (6)>= 10000Nicht signifikant 
GENEVA/COINTRIN
CH 411
Do 19.05. 08:50211464 %1023
1022
974
W 3 (7)>= 10000Nicht signifikant 
GENEVA/COINTRIN
CH 411
Do 19.05. 08:20201468 %1023
1022
974
W 2 (4)>= 10000Nicht signifikant 
GENEVA/COINTRIN
CH 411
Do 19.05. 07:50201468 %1023
1022
974
WSW 2 (3)
SSW - W
>= 10000Nicht signifikant 
GENEVA/COINTRIN
CH 411
Do 19.05. 07:20181373 %1023
1023
974
Uml 1 (1)>= 10000Nicht signifikant 
GENEVA/COINTRIN
CH 411
Do 19.05. 06:50171377 %1022
1022
973
Uml 1 (1)>= 10000Nicht signifikant 
GENEVA/COINTRIN
CH 411
Do 19.05. 06:20151282 %1022
1022
973
N 1 (1)>= 10000Nicht signifikant 
GENEVA/COINTRIN
CH 411
Do 19.05. 05:50161277 %1022
1022
973
Uml 1 (1)>= 10000Nicht signifikant 
GENEVA/COINTRIN
CH 411
Do 19.05. 05:20161277 %1022
1022
973
Uml 1 (2)>= 10000  
GENEVA/COINTRIN
CH 411
Do 19.05. 04:50161277 %1022
1022
973
Uml 1 (2)>= 10000  
GENEVA/COINTRIN
CH 411
Do 19.05. 04:20171272 %1021
1021
972
Windstill>= 10000  
GENEVA/COINTRIN
CH 411
Do 19.05. 03:50171272 %1021
1021
972
Uml 2 (3)>= 10000  
GENEVA/COINTRIN
CH 411
Do 19.05. 03:20171272 %1021
1021
972
Uml 1 (2)>= 10000  
GENEVA/COINTRIN
CH 411
Do 19.05. 02:50171272 %1021
1021
972
Uml 1 (1)>= 10000  
GENEVA/COINTRIN
CH 411
Do 19.05. 02:20181268 %1021
1021
972
Uml 1 (2)>= 10000  
GENEVA/COINTRIN
CH 411
Do 19.05. 01:50181268 %1021
1021
972
Uml 1 (2)>= 10000  
GENEVA/COINTRIN
CH 411
Do 19.05. 01:20181268 %1021
1021
972
WNW 2 (3)>= 10000  
GENEVA/COINTRIN
CH 411
Do 19.05. 00:50181268 %1021
1021
972
W 1 (2)>= 10000Leicht bewölkt (2700) 
GENEVA/COINTRIN
CH 411
Do 19.05. 00:20191264 %1021
1020
972
Uml 1 (1)>= 10000  
GENEVA/COINTRIN
CH 411
Mi 18.05. 23:50191264 %1021
1020
972
Uml 1 (1)>= 10000  
GENEVA/COINTRIN
CH 411
Mi 18.05. 23:20201364 %1021
1020
972
W 1 (2)>= 10000Nicht signifikant 
GENEVA/COINTRIN
CH 411
Mi 18.05. 22:50211360 %1020
1019
971
Uml 1 (2)>= 10000Nicht signifikant 
GENEVA/COINTRIN
CH 411
Mi 18.05. 22:20211360 %1020
1019
971
NNO 1 (2)>= 10000Nicht signifikant 
GENEVA/COINTRIN
CH 411
Mi 18.05. 21:50221357 %1020
1019
971
WSW 1 (1)>= 10000Nicht signifikant 
GENEVA/COINTRIN
CH 411
Mi 18.05. 21:20231457 %1019
1018
970
SSO 1 (1)>= 10000Nicht signifikant 
GENEVA/COINTRIN
CH 411
Mi 18.05. 20:50241247 %1019
1018
970
N 1 (1)>= 10000Nicht signifikant 
GENEVA/COINTRIN
CH 411
Mi 18.05. 20:20261345 %1019
1017
970
N 1 (2)>= 10000Nicht signifikant 
GENEVA/COINTRIN
CH 411
Mi 18.05. 19:50271137 %1019
1017
970
NO 2 (3)>= 10000Leicht bewölkt (1800) 
GENEVA/COINTRIN
CH 411
Mi 18.05. 19:20281032 %1019
1017
970
NNO 2 (3)>= 10000Leicht bewölkt (1800) 
GENEVA/COINTRIN
CH 411
Mi 18.05. 18:50281032 %1019
1017
970
NNO 2 (3)>= 10000Leicht bewölkt (1800) 
GENEVA/COINTRIN
CH 411
Mi 18.05. 18:20281135 %1019
1017
970
NNO 2 (3)>= 10000Leicht bewölkt (1800) 
GENEVA/COINTRIN
CH 411
Mi 18.05. 17:50281237 %1019
1017
970
ONO 2 (4)>= 10000Leicht bewölkt (1800) 
GENEVA/COINTRIN
CH 411
Mi 18.05. 17:20281237 %1019
1017
970
NNO 2 (3)>= 10000Leicht bewölkt (1800) 
GENEVA/COINTRIN
CH 411
Mi 18.05. 16:50281237 %1019
1017
970
NNO 2 (5)>= 10000Leicht bewölkt (1800) 
GENEVA/COINTRIN
CH 411
Mi 18.05. 16:20281237 %1020
1018
971
NO 2 (6)>= 10000Leicht bewölkt (1800) 
GENEVA/COINTRIN
CH 411
Mi 18.05. 15:50271137 %1020
1018
971
O 3 (7)>= 10000Leicht bewölkt (1800) 

Altimeter: Einstellung am Altimeter (Höhenmesser), die Höhe 0 muss auf diesen Luftdruckwert zeigen, damit das Gerät die Stationshöhe richtig anzeigt.

NN: Luftdruck reduziert auf "Normal Null", auf Meereshöhe, dieser von der Temperatur abhängige Wert wird bisweilen unkorrekt einfach als "Luftdruck" bezeichnet. Eigentlich nur eine fiktive Größe, die es erlaubt, Stationen auf unterschiedlichen Höhen miteinander zu vergleichen.

Station: Realer Luftdruck an der Station.